createdAt,value
2023-03-29T00:00:12.417Z,1016.81
2023-03-29T00:01:12.403Z,1016.79
2023-03-29T00:02:12.433Z,1016.80
2023-03-29T00:03:12.489Z,1016.80
2023-03-29T00:04:12.544Z,1016.77
2023-03-29T00:05:12.400Z,1016.78
2023-03-29T00:06:12.336Z,1016.78
2023-03-29T00:07:12.361Z,1016.78
2023-03-29T00:08:12.310Z,1016.76
2023-03-29T00:09:12.297Z,1016.73
2023-03-29T00:10:12.291Z,1016.77
2023-03-29T00:11:12.272Z,1016.71
2023-03-29T00:12:12.279Z,1016.72
2023-03-29T00:13:12.248Z,1016.70
2023-03-29T00:14:12.228Z,1016.72
2023-03-29T00:15:12.222Z,1016.71
2023-03-29T00:16:12.214Z,1016.72
2023-03-29T00:17:12.214Z,1016.71
2023-03-29T00:18:12.192Z,1016.68
2023-03-29T00:19:12.168Z,1016.72
2023-03-29T00:20:12.154Z,1016.70
2023-03-29T00:21:12.186Z,1016.70
2023-03-29T00:22:12.136Z,1016.67
2023-03-29T00:23:12.115Z,1016.65
2023-03-29T00:24:12.102Z,1016.66
2023-03-29T00:25:12.093Z,1016.68
2023-03-29T00:26:12.077Z,1016.65
2023-03-29T00:27:12.077Z,1016.64
2023-03-29T00:28:12.057Z,1016.64
2023-03-29T00:29:12.038Z,1016.62
2023-03-29T00:30:12.027Z,1016.63
2023-03-29T00:31:12.084Z,1016.64
2023-03-29T00:32:12.004Z,1016.62
2023-03-29T00:33:11.990Z,1016.61
2023-03-29T00:34:11.975Z,1016.60
2023-03-29T00:35:11.961Z,1016.61
2023-03-29T00:36:12.012Z,1016.60
2023-03-29T00:37:11.938Z,1016.61
2023-03-29T00:38:11.925Z,1016.61
2023-03-29T00:39:11.907Z,1016.62
2023-03-29T00:40:11.899Z,1016.58
2023-03-29T00:41:11.902Z,1016.59
2023-03-29T00:42:11.875Z,1016.59
2023-03-29T00:43:12.029Z,1016.59
2023-03-29T00:44:11.851Z,1016.53
2023-03-29T00:45:11.832Z,1016.52
2023-03-29T00:46:11.860Z,1016.55
2023-03-29T00:47:11.806Z,1016.51
2023-03-29T00:48:11.886Z,1016.49
2023-03-29T00:49:11.787Z,1016.49
2023-03-29T00:50:11.777Z,1016.49
2023-03-29T00:51:11.754Z,1016.45
2023-03-29T00:52:11.751Z,1016.46
2023-03-29T00:53:11.731Z,1016.40
2023-03-29T00:54:11.717Z,1016.42
2023-03-29T00:55:11.707Z,1016.43
2023-03-29T00:56:11.690Z,1016.42
2023-03-29T00:57:11.690Z,1016.42
2023-03-29T00:58:11.701Z,1016.37
2023-03-29T00:59:11.653Z,1016.34
2023-03-29T01:00:11.639Z,1016.32
2023-03-29T01:01:11.629Z,1016.31
2023-03-29T01:02:11.657Z,1016.30
2023-03-29T01:03:11.668Z,1016.26
2023-03-29T01:04:11.586Z,1016.28
2023-03-29T01:05:11.586Z,1016.26
2023-03-29T01:06:11.562Z,1016.23
2023-03-29T01:07:11.640Z,1016.16
2023-03-29T01:08:11.548Z,1016.20
2023-03-29T01:09:11.532Z,1016.17
2023-03-29T01:10:11.513Z,1016.14
2023-03-29T01:11:11.497Z,1016.14
2023-03-29T01:12:11.489Z,1016.12
2023-03-29T01:13:11.485Z,1016.14
2023-03-29T01:14:11.464Z,1016.13
2023-03-29T01:15:11.450Z,1016.14
2023-03-29T01:16:11.463Z,1016.12
2023-03-29T01:17:11.422Z,1016.10
2023-03-29T01:18:11.464Z,1016.13
2023-03-29T01:19:11.397Z,1016.08
2023-03-29T01:20:11.381Z,1016.10
2023-03-29T01:21:11.372Z,1016.05
2023-03-29T01:22:11.573Z,1016.03
2023-03-29T01:23:11.435Z,1016.00
2023-03-29T01:24:11.335Z,1015.94
2023-03-29T01:25:11.353Z,1015.94
2023-03-29T01:26:11.317Z,1015.90
2023-03-29T01:27:11.376Z,1015.92
2023-03-29T01:28:11.282Z,1015.89
2023-03-29T01:29:11.271Z,1015.85
2023-03-29T01:30:11.257Z,1015.83
2023-03-29T01:31:11.255Z,1015.82
2023-03-29T01:32:11.339Z,1015.81
2023-03-29T01:33:11.221Z,1015.80
2023-03-29T01:34:11.208Z,1015.79
2023-03-29T01:35:11.194Z,1015.76
2023-03-29T01:36:11.228Z,1015.74
2023-03-29T01:37:11.183Z,1015.72
2023-03-29T01:38:11.153Z,1015.71
2023-03-29T01:39:11.157Z,1015.66
2023-03-29T01:40:11.144Z,1015.65
2023-03-29T01:41:11.137Z,1015.69
2023-03-29T01:42:11.103Z,1015.67
2023-03-29T01:43:11.094Z,1015.64
2023-03-29T01:44:11.132Z,1015.57
2023-03-29T01:45:11.078Z,1015.59
2023-03-29T01:46:11.079Z,1015.61
2023-03-29T01:47:11.042Z,1015.61
2023-03-29T01:48:11.061Z,1015.55
2023-03-29T01:49:11.020Z,1015.54
2023-03-29T01:50:11.007Z,1015.52
2023-03-29T01:51:10.998Z,1015.48
2023-03-29T01:52:10.974Z,1015.48
2023-03-29T01:53:10.970Z,1015.43
2023-03-29T01:54:10.955Z,1015.44
2023-03-29T01:55:10.951Z,1015.41
2023-03-29T01:56:10.932Z,1015.38
2023-03-29T01:57:10.966Z,1015.38
2023-03-29T01:58:10.901Z,1015.38
2023-03-29T01:59:10.890Z,1015.35
2023-03-29T02:00:10.883Z,1015.34
2023-03-29T02:01:10.897Z,1015.34
2023-03-29T02:02:10.851Z,1015.31
2023-03-29T02:03:11.071Z,1015.32
2023-03-29T02:04:10.824Z,1015.34
2023-03-29T02:05:10.810Z,1015.30
2023-03-29T02:06:10.798Z,1015.28
2023-03-29T02:07:10.800Z,1015.27
2023-03-29T02:08:10.776Z,1015.30
2023-03-29T02:09:10.763Z,1015.27
2023-03-29T02:10:10.747Z,1015.27
2023-03-29T02:11:10.731Z,1015.23
2023-03-29T02:12:10.733Z,1015.23
2023-03-29T02:13:10.723Z,1015.23
2023-03-29T02:14:10.705Z,1015.24
2023-03-29T02:15:10.690Z,1015.22
2023-03-29T02:16:10.694Z,1015.19
2023-03-29T02:17:10.662Z,1015.21
2023-03-29T02:18:10.681Z,1015.16
2023-03-29T02:19:10.637Z,1015.16
2023-03-29T02:20:10.656Z,1015.17
2023-03-29T02:21:10.620Z,1015.18
2023-03-29T02:22:10.641Z,1015.11
2023-03-29T02:23:10.582Z,1015.13
2023-03-29T02:24:10.570Z,1015.11
2023-03-29T02:25:10.557Z,1015.13
2023-03-29T02:26:10.544Z,1015.05
2023-03-29T02:27:10.532Z,1015.05
2023-03-29T02:28:10.540Z,1015.03
2023-03-29T02:29:10.521Z,1015.02
2023-03-29T02:30:10.520Z,1014.99
2023-03-29T02:31:10.494Z,1014.97
2023-03-29T02:32:10.464Z,1014.92
2023-03-29T02:33:10.521Z,1014.89
2023-03-29T02:34:10.443Z,1014.92
2023-03-29T02:35:10.426Z,1014.92
2023-03-29T02:36:10.461Z,1014.86
2023-03-29T02:37:10.407Z,1014.84
2023-03-29T02:38:10.430Z,1014.81
2023-03-29T02:39:10.417Z,1014.82
2023-03-29T02:40:10.374Z,1014.81
2023-03-29T02:41:10.351Z,1014.76
2023-03-29T02:42:10.338Z,1014.76
2023-03-29T02:43:10.358Z,1014.78
2023-03-29T02:44:10.320Z,1014.76
2023-03-29T02:45:10.307Z,1014.71
2023-03-29T02:46:10.322Z,1014.70
2023-03-29T02:47:10.275Z,1014.72
2023-03-29T02:48:10.375Z,1014.74
2023-03-29T02:49:10.266Z,1014.74
2023-03-29T02:50:10.247Z,1014.69
2023-03-29T02:51:10.302Z,1014.69
2023-03-29T02:52:10.221Z,1014.69
2023-03-29T02:53:10.210Z,1014.65
2023-03-29T02:54:10.191Z,1014.65
2023-03-29T02:55:10.183Z,1014.61
2023-03-29T02:56:10.165Z,1014.66
2023-03-29T02:57:10.180Z,1014.63
2023-03-29T02:58:10.142Z,1014.65
2023-03-29T02:59:10.127Z,1014.59
2023-03-29T03:00:10.125Z,1014.59
2023-03-29T03:01:10.106Z,1014.63
2023-03-29T03:02:10.112Z,1014.62
2023-03-29T03:03:10.191Z,1014.59
2023-03-29T03:04:10.218Z,1014.57
2023-03-29T03:05:10.056Z,1014.53
2023-03-29T03:06:10.043Z,1014.52
2023-03-29T03:07:10.029Z,1014.50
2023-03-29T03:08:10.031Z,1014.50
2023-03-29T03:09:10.002Z,1014.46
2023-03-29T03:10:09.995Z,1014.46
2023-03-29T03:11:09.979Z,1014.46
2023-03-29T03:12:09.968Z,1014.46
2023-03-29T03:13:10.032Z,1014.47
2023-03-29T03:14:09.961Z,1014.44
2023-03-29T03:15:09.929Z,1014.42
2023-03-29T03:16:09.996Z,1014.41
2023-03-29T03:17:09.906Z,1014.38
2023-03-29T03:18:09.918Z,1014.36
2023-03-29T03:19:09.925Z,1014.34
2023-03-29T03:20:09.870Z,1014.36
2023-03-29T03:21:09.879Z,1014.34
2023-03-29T03:22:09.841Z,1014.34
2023-03-29T03:23:09.830Z,1014.34
2023-03-29T03:24:09.817Z,1014.35
2023-03-29T03:25:09.801Z,1014.35
2023-03-29T03:26:09.781Z,1014.35
2023-03-29T03:27:09.766Z,1014.31
2023-03-29T03:28:09.751Z,1014.32
2023-03-29T03:29:09.742Z,1014.30
2023-03-29T03:30:09.742Z,1014.31
2023-03-29T03:31:09.752Z,1014.28
2023-03-29T03:32:09.731Z,1014.29
2023-03-29T03:33:09.694Z,1014.28
2023-03-29T03:34:09.680Z,1014.27
2023-03-29T03:35:09.675Z,1014.29
2023-03-29T03:36:09.673Z,1014.27
2023-03-29T03:37:09.640Z,1014.27
2023-03-29T03:38:09.630Z,1014.25
2023-03-29T03:39:09.615Z,1014.28
2023-03-29T03:40:09.606Z,1014.24
2023-03-29T03:41:09.592Z,1014.24
2023-03-29T03:42:09.590Z,1014.20
2023-03-29T03:43:09.568Z,1014.16
2023-03-29T03:44:09.553Z,1014.15
2023-03-29T03:45:09.543Z,1014.20
2023-03-29T03:46:09.573Z,1014.21
2023-03-29T03:47:09.513Z,1014.19
2023-03-29T03:48:09.555Z,1014.20
2023-03-29T03:49:09.490Z,1014.23
2023-03-29T03:50:09.477Z,1014.21
2023-03-29T03:51:09.464Z,1014.25
2023-03-29T03:52:09.445Z,1014.28
2023-03-29T03:53:09.672Z,1014.28
2023-03-29T03:54:09.424Z,1014.24
2023-03-29T03:55:09.439Z,1014.28
2023-03-29T03:56:09.398Z,1014.26
2023-03-29T03:57:09.463Z,1014.24
2023-03-29T03:58:09.373Z,1014.23
2023-03-29T03:59:09.383Z,1014.20
2023-03-29T04:00:09.343Z,1014.21
2023-03-29T04:01:09.336Z,1014.21
2023-03-29T04:02:09.368Z,1014.22
2023-03-29T04:03:09.445Z,1014.21
2023-03-29T04:04:09.330Z,1014.18
2023-03-29T04:05:09.281Z,1014.23
2023-03-29T04:06:09.269Z,1014.20
2023-03-29T04:07:09.256Z,1014.20
2023-03-29T04:08:09.319Z,1014.21
2023-03-29T04:09:09.247Z,1014.17
2023-03-29T04:10:09.235Z,1014.19
2023-03-29T04:11:09.205Z,1014.20
2023-03-29T04:12:09.190Z,1014.22
2023-03-29T04:13:09.200Z,1014.22
2023-03-29T04:14:09.169Z,1014.26
2023-03-29T04:15:09.152Z,1014.23
2023-03-29T04:16:09.201Z,1014.26
2023-03-29T04:17:09.125Z,1014.22
2023-03-29T04:18:09.205Z,1014.17
2023-03-29T04:19:09.101Z,1014.16
2023-03-29T04:20:09.096Z,1014.12
2023-03-29T04:21:09.086Z,1014.12
2023-03-29T04:22:09.070Z,1014.09
2023-03-29T04:23:09.061Z,1014.09
2023-03-29T04:24:09.036Z,1014.03
2023-03-29T04:25:09.029Z,1014.07
2023-03-29T04:26:09.014Z,1014.07
2023-03-29T04:27:09.001Z,1014.06
2023-03-29T04:28:08.984Z,1014.07
2023-03-29T04:29:08.972Z,1014.10
2023-03-29T04:30:09.018Z,1014.07
2023-03-29T04:31:08.966Z,1014.05
2023-03-29T04:32:08.938Z,1014.10
2023-03-29T04:33:08.974Z,1014.06
2023-03-29T04:34:08.910Z,1014.07
2023-03-29T04:35:08.900Z,1014.08
2023-03-29T04:36:08.922Z,1014.09
2023-03-29T04:37:08.875Z,1014.06
2023-03-29T04:38:08.862Z,1014.06
2023-03-29T04:39:08.859Z,1014.08
2023-03-29T04:40:08.838Z,1014.09
2023-03-29T04:41:08.830Z,1014.07
2023-03-29T04:42:08.847Z,1014.04
2023-03-29T04:43:08.801Z,1014.03
2023-03-29T04:44:08.788Z,1014.02
2023-03-29T04:45:08.822Z,1014.01
2023-03-29T04:46:08.781Z,1014.02
2023-03-29T04:47:08.746Z,1014.00
2023-03-29T04:48:08.774Z,1014.06
2023-03-29T04:49:08.727Z,1014.03
2023-03-29T04:50:08.704Z,1013.99
2023-03-29T04:51:08.699Z,1013.98
2023-03-29T04:52:08.684Z,1013.97
2023-03-29T04:53:08.671Z,1013.93
2023-03-29T04:54:08.659Z,1013.99
2023-03-29T04:55:08.683Z,1013.97
2023-03-29T04:56:08.636Z,1013.97
2023-03-29T04:57:08.712Z,1013.96
2023-03-29T04:58:08.624Z,1014.02
2023-03-29T04:59:08.597Z,1013.95
2023-03-29T05:00:08.592Z,1013.97
2023-03-29T05:01:08.585Z,1013.94
2023-03-29T05:02:08.589Z,1013.94
2023-03-29T05:03:08.630Z,1013.90
2023-03-29T05:04:10.212Z,1013.91
2023-03-29T05:05:08.521Z,1013.89
2023-03-29T05:06:08.507Z,1013.87
2023-03-29T05:07:08.514Z,1013.84
2023-03-29T05:08:08.486Z,1013.86
2023-03-29T05:09:08.467Z,1013.87
2023-03-29T05:10:08.453Z,1013.85
2023-03-29T05:11:08.442Z,1013.84
2023-03-29T05:12:08.450Z,1013.85
2023-03-29T05:13:08.419Z,1013.81
2023-03-29T05:14:08.408Z,1013.81
2023-03-29T05:15:08.398Z,1013.83
2023-03-29T05:16:08.396Z,1013.83
2023-03-29T05:17:08.365Z,1013.82
2023-03-29T05:18:08.459Z,1013.82
2023-03-29T05:19:08.340Z,1013.82
2023-03-29T05:20:08.331Z,1013.76
2023-03-29T05:21:08.313Z,1013.81
2023-03-29T05:22:08.333Z,1013.76
2023-03-29T05:23:08.288Z,1013.75
2023-03-29T05:24:08.280Z,1013.80
2023-03-29T05:25:08.287Z,1013.81
2023-03-29T05:26:08.276Z,1013.79
2023-03-29T05:27:08.255Z,1013.81
2023-03-29T05:28:08.254Z,1013.78
2023-03-29T05:29:08.214Z,1013.75
2023-03-29T05:30:08.232Z,1013.75
2023-03-29T05:31:08.292Z,1013.74
2023-03-29T05:32:08.269Z,1013.73
2023-03-29T05:33:08.220Z,1013.76
2023-03-29T05:34:08.155Z,1013.75
2023-03-29T05:35:08.138Z,1013.76
2023-03-29T05:36:08.220Z,1013.76
2023-03-29T05:37:08.115Z,1013.73
2023-03-29T05:38:08.102Z,1013.78
2023-03-29T05:39:08.087Z,1013.74
2023-03-29T05:40:08.122Z,1013.70
2023-03-29T05:41:08.062Z,1013.69
2023-03-29T05:42:08.049Z,1013.70
2023-03-29T05:43:08.044Z,1013.67
2023-03-29T05:44:08.026Z,1013.67
2023-03-29T05:45:08.006Z,1013.67
2023-03-29T05:46:08.010Z,1013.68
2023-03-29T05:47:07.988Z,1013.67
2023-03-29T05:48:08.022Z,1013.69
2023-03-29T05:49:07.966Z,1013.71
2023-03-29T05:50:07.950Z,1013.71
2023-03-29T05:51:07.940Z,1013.68
2023-03-29T05:52:07.925Z,1013.66
2023-03-29T05:53:07.912Z,1013.62
2023-03-29T05:54:07.895Z,1013.63
2023-03-29T05:55:07.899Z,1013.63
2023-03-29T05:56:07.922Z,1013.60
2023-03-29T05:57:07.963Z,1013.61
2023-03-29T05:58:07.904Z,1013.65
2023-03-29T05:59:07.845Z,1013.64
2023-03-29T06:00:07.869Z,1013.67
2023-03-29T06:01:07.821Z,1013.62
2023-03-29T06:02:07.872Z,1013.64
2023-03-29T06:03:17.985Z,1013.63
2023-03-29T06:04:07.858Z,1013.64
2023-03-29T06:05:07.949Z,1013.67
2023-03-29T06:06:07.858Z,1013.64
2023-03-29T06:07:07.746Z,1013.65
2023-03-29T06:08:07.743Z,1013.66
2023-03-29T06:09:07.742Z,1013.70
2023-03-29T06:10:07.740Z,1013.67
2023-03-29T06:11:07.992Z,1013.67
2023-03-29T06:12:07.688Z,1013.67
2023-03-29T06:13:07.680Z,1013.67
2023-03-29T06:14:07.695Z,1013.69
2023-03-29T06:15:07.650Z,1013.68
2023-03-29T06:16:07.657Z,1013.62
2023-03-29T06:17:07.660Z,1013.64
2023-03-29T06:18:07.690Z,1013.59
2023-03-29T06:19:07.608Z,1013.65
2023-03-29T06:20:07.596Z,1013.62
2023-03-29T06:21:07.637Z,1013.63
2023-03-29T06:22:07.573Z,1013.59
2023-03-29T06:23:07.573Z,1013.56
2023-03-29T06:24:07.549Z,1013.64
2023-03-29T06:25:07.533Z,1013.61
2023-03-29T06:26:07.523Z,1013.57
2023-03-29T06:27:07.517Z,1013.53
2023-03-29T06:28:07.530Z,1013.51
2023-03-29T06:29:07.570Z,1013.51
2023-03-29T06:30:07.495Z,1013.52
2023-03-29T06:31:07.559Z,1013.49
2023-03-29T06:32:07.462Z,1013.52
2023-03-29T06:33:07.503Z,1013.53
2023-03-29T06:34:07.553Z,1013.53
2023-03-29T06:35:07.420Z,1013.52
2023-03-29T06:36:07.534Z,1013.52
2023-03-29T06:37:07.416Z,1013.52
2023-03-29T06:38:07.446Z,1013.49
2023-03-29T06:39:07.411Z,1013.51
2023-03-29T06:40:07.378Z,1013.52
2023-03-29T06:41:07.382Z,1013.51
2023-03-29T06:42:16.883Z,1013.49
2023-03-29T06:43:07.376Z,1013.50
2023-03-29T06:44:07.322Z,1013.47
2023-03-29T06:45:07.309Z,1013.48
2023-03-29T06:46:07.320Z,1013.47
2023-03-29T06:47:07.285Z,1013.46
2023-03-29T06:48:07.316Z,1013.48
2023-03-29T06:49:07.286Z,1013.47
2023-03-29T06:50:07.257Z,1013.42
2023-03-29T06:51:07.242Z,1013.40
2023-03-29T06:52:09.807Z,1013.42
2023-03-29T06:53:08.098Z,1013.45
2023-03-29T06:54:07.213Z,1013.43
2023-03-29T06:55:07.206Z,1013.39
2023-03-29T06:56:07.186Z,1013.45
2023-03-29T06:57:07.216Z,1013.41
2023-03-29T06:58:07.169Z,1013.40
2023-03-29T06:59:07.156Z,1013.37
2023-03-29T07:00:07.149Z,1013.42
2023-03-29T07:01:07.223Z,1013.42
2023-03-29T07:02:07.190Z,1013.39
2023-03-29T07:03:07.374Z,1013.43
2023-03-29T07:04:07.146Z,1013.42
2023-03-29T07:05:07.096Z,1013.41
2023-03-29T07:06:07.082Z,1013.43
2023-03-29T07:07:07.066Z,1013.45
2023-03-29T07:08:07.056Z,1013.45
2023-03-29T07:09:07.133Z,1013.43
2023-03-29T07:10:07.045Z,1013.45
2023-03-29T07:11:07.034Z,1013.43
2023-03-29T07:12:07.009Z,1013.45
2023-03-29T07:13:07.017Z,1013.44
2023-03-29T07:14:06.991Z,1013.44
2023-03-29T07:15:06.978Z,1013.46
2023-03-29T07:16:06.985Z,1013.49
2023-03-29T07:17:06.958Z,1013.48
2023-03-29T07:18:06.976Z,1013.49
2023-03-29T07:19:06.931Z,1013.49
2023-03-29T07:20:06.935Z,1013.48
2023-03-29T07:21:06.916Z,1013.42
2023-03-29T07:22:06.912Z,1013.43
2023-03-29T07:23:06.887Z,1013.46
2023-03-29T07:24:06.902Z,1013.44
2023-03-29T07:25:06.868Z,1013.50
2023-03-29T07:26:06.863Z,1013.49
2023-03-29T07:27:06.856Z,1013.45
2023-03-29T07:28:06.845Z,1013.44
2023-03-29T07:29:06.856Z,1013.45
2023-03-29T07:30:06.819Z,1013.40
2023-03-29T07:31:06.847Z,1013.41
2023-03-29T07:32:06.811Z,1013.38
2023-03-29T07:33:06.986Z,1013.34
2023-03-29T07:34:06.794Z,1013.35
2023-03-29T07:35:06.768Z,1013.37
2023-03-29T07:36:06.778Z,1013.35
2023-03-29T07:37:06.751Z,1013.34
2023-03-29T07:38:06.741Z,1013.33
2023-03-29T07:39:06.731Z,1013.31
2023-03-29T07:40:06.770Z,1013.37
2023-03-29T07:41:06.831Z,1013.38
2023-03-29T07:42:06.712Z,1013.42
2023-03-29T07:43:06.678Z,1013.42
2023-03-29T07:44:06.674Z,1013.40
2023-03-29T07:45:06.656Z,1013.37
2023-03-29T07:46:06.770Z,1013.34
2023-03-29T07:47:06.641Z,1013.35
2023-03-29T07:48:06.705Z,1013.32
2023-03-29T07:49:06.615Z,1013.41
2023-03-29T07:50:06.616Z,1013.36
2023-03-29T07:51:06.597Z,1013.37
2023-03-29T07:52:06.587Z,1013.37
2023-03-29T07:53:06.576Z,1013.37
2023-03-29T07:54:06.577Z,1013.38
2023-03-29T07:55:06.570Z,1013.37
2023-03-29T07:56:06.547Z,1013.36
2023-03-29T07:57:06.538Z,1013.40
2023-03-29T07:58:06.532Z,1013.38
2023-03-29T07:59:06.516Z,1013.42
2023-03-29T08:00:06.588Z,1013.41
2023-03-29T08:01:06.751Z,1013.40
2023-03-29T08:02:06.490Z,1013.41
2023-03-29T08:03:06.543Z,1013.39
2023-03-29T08:04:06.585Z,1013.37
2023-03-29T08:05:06.522Z,1013.39
2023-03-29T08:06:06.454Z,1013.39
2023-03-29T08:07:06.440Z,1013.40
2023-03-29T08:08:06.515Z,1013.38
2023-03-29T08:09:06.424Z,1013.42
2023-03-29T08:10:06.428Z,1013.43
2023-03-29T08:11:06.452Z,1013.47
2023-03-29T08:12:06.392Z,1013.46
2023-03-29T08:13:06.381Z,1013.42
2023-03-29T08:14:06.372Z,1013.40
2023-03-29T08:15:06.364Z,1013.36
2023-03-29T08:16:06.357Z,1013.29
2023-03-29T08:17:06.396Z,1013.29
2023-03-29T08:18:06.408Z,1013.24
2023-03-29T08:19:06.327Z,1013.27
2023-03-29T08:20:06.319Z,1013.26
2023-03-29T08:21:06.486Z,1013.27
2023-03-29T08:22:06.298Z,1013.25
2023-03-29T08:23:06.296Z,1013.27
2023-03-29T08:24:06.288Z,1013.30
2023-03-29T08:25:06.298Z,1013.25
2023-03-29T08:26:06.263Z,1013.29
2023-03-29T08:27:06.250Z,1013.30
2023-03-29T08:28:06.244Z,1013.26
2023-03-29T08:29:06.235Z,1013.28
2023-03-29T08:30:06.231Z,1013.26
2023-03-29T08:31:06.271Z,1013.28
2023-03-29T08:32:06.202Z,1013.23
2023-03-29T08:33:06.231Z,1013.23
2023-03-29T08:34:06.187Z,1013.19
2023-03-29T08:35:06.217Z,1013.18
2023-03-29T08:36:06.213Z,1013.18
2023-03-29T08:37:06.165Z,1013.12
2023-03-29T08:38:06.162Z,1013.09
2023-03-29T08:39:06.146Z,1013.07
2023-03-29T08:40:06.156Z,1013.05
2023-03-29T08:41:06.118Z,1012.99
2023-03-29T08:42:06.119Z,1012.98
2023-03-29T08:43:06.113Z,1013.00
2023-03-29T08:44:06.086Z,1012.99
2023-03-29T08:45:06.114Z,1012.99
2023-03-29T08:46:06.092Z,1013.01
2023-03-29T08:47:06.635Z,1013.03
2023-03-29T08:48:06.093Z,1013.00
2023-03-29T08:49:06.042Z,1013.02
2023-03-29T08:50:06.029Z,1013.02
2023-03-29T08:51:07.973Z,1012.98
2023-03-29T08:52:06.008Z,1012.98
2023-03-29T08:53:06.010Z,1012.99
2023-03-29T08:54:05.990Z,1013.00
2023-03-29T08:55:05.976Z,1012.98
2023-03-29T08:56:05.975Z,1013.02
2023-03-29T08:57:05.986Z,1012.95
2023-03-29T08:58:05.951Z,1012.91
2023-03-29T08:59:05.938Z,1012.94
2023-03-29T09:00:05.943Z,1012.93
2023-03-29T09:01:06.005Z,1012.95
2023-03-29T09:02:05.948Z,1013.00
2023-03-29T09:03:05.983Z,1012.99
2023-03-29T09:04:05.951Z,1012.97
2023-03-29T09:05:05.883Z,1012.97
2023-03-29T09:06:05.879Z,1012.96
2023-03-29T09:07:05.854Z,1012.86
2023-03-29T09:08:05.848Z,1012.84
2023-03-29T09:09:05.863Z,1012.79
2023-03-29T09:10:05.832Z,1012.80
2023-03-29T09:11:05.820Z,1012.81
2023-03-29T09:12:05.813Z,1012.78
2023-03-29T09:13:05.814Z,1012.73
2023-03-29T09:14:05.789Z,1012.72
2023-03-29T09:15:05.794Z,1012.72
2023-03-29T09:16:05.821Z,1012.72
2023-03-29T09:17:05.762Z,1012.74
2023-03-29T09:18:05.806Z,1012.75
2023-03-29T09:19:05.743Z,1012.78
2023-03-29T09:20:05.738Z,1012.77
2023-03-29T09:21:05.727Z,1012.79
2023-03-29T09:22:05.719Z,1012.85
2023-03-29T09:23:05.707Z,1012.85
2023-03-29T09:24:05.700Z,1012.86
2023-03-29T09:25:05.687Z,1012.87
2023-03-29T09:26:05.677Z,1012.85
2023-03-29T09:27:05.707Z,1012.80
2023-03-29T09:28:05.665Z,1012.80
2023-03-29T09:29:07.735Z,1012.79
2023-03-29T09:30:05.649Z,1012.77
2023-03-29T09:31:05.664Z,1012.77
2023-03-29T09:32:05.641Z,1012.79
2023-03-29T09:33:05.676Z,1012.78
2023-03-29T09:34:05.609Z,1012.75
2023-03-29T09:35:05.597Z,1012.71
2023-03-29T09:36:05.603Z,1012.71
2023-03-29T09:37:05.591Z,1012.71
2023-03-29T09:38:05.582Z,1012.74
2023-03-29T09:39:05.564Z,1012.72
2023-03-29T09:40:05.609Z,1012.74
2023-03-29T09:41:05.902Z,1012.68
2023-03-29T09:42:05.537Z,1012.69
2023-03-29T09:43:05.536Z,1012.68
2023-03-29T09:44:05.526Z,1012.70
2023-03-29T09:45:05.512Z,1012.64
2023-03-29T09:46:05.531Z,1012.67
2023-03-29T09:47:05.495Z,1012.65
2023-03-29T09:48:05.504Z,1012.63
2023-03-29T09:49:05.478Z,1012.61
2023-03-29T09:50:05.470Z,1012.60
2023-03-29T09:51:05.474Z,1012.61
2023-03-29T09:52:05.452Z,1012.61
2023-03-29T09:53:05.453Z,1012.64
2023-03-29T09:54:05.446Z,1012.63
2023-03-29T09:55:05.428Z,1012.63
2023-03-29T09:56:05.421Z,1012.63
2023-03-29T09:57:05.436Z,1012.62
2023-03-29T09:58:05.408Z,1012.61
2023-03-29T09:59:05.527Z,1012.61
2023-03-29T10:00:05.390Z,1012.55
2023-03-29T10:01:05.755Z,1012.54
2023-03-29T10:02:05.367Z,1012.50
2023-03-29T10:03:05.414Z,1012.52
2023-03-29T10:04:05.388Z,1012.47
2023-03-29T10:05:05.347Z,1012.49
2023-03-29T10:06:05.334Z,1012.49
2023-03-29T10:07:05.325Z,1012.42
2023-03-29T10:08:05.320Z,1012.46
2023-03-29T10:09:05.324Z,1012.43
2023-03-29T10:10:05.304Z,1012.40
2023-03-29T10:11:05.408Z,1012.40
2023-03-29T10:12:05.283Z,1012.41
2023-03-29T10:13:05.279Z,1012.33
2023-03-29T10:14:05.265Z,1012.28
2023-03-29T10:15:05.260Z,1012.29
2023-03-29T10:16:05.264Z,1012.39
2023-03-29T10:17:05.246Z,1012.33
2023-03-29T10:18:05.244Z,1012.33
2023-03-29T10:19:05.221Z,1012.33
2023-03-29T10:20:05.644Z,1012.35
2023-03-29T10:21:05.522Z,1012.29
2023-03-29T10:22:05.217Z,1012.27
2023-03-29T10:23:05.194Z,1012.26
2023-03-29T10:24:05.181Z,1012.22
2023-03-29T10:25:05.183Z,1012.24
2023-03-29T10:26:05.171Z,1012.22
2023-03-29T10:27:05.156Z,1012.24
2023-03-29T10:28:05.168Z,1012.25
2023-03-29T10:29:05.155Z,1012.31
2023-03-29T10:30:05.140Z,1012.26
2023-03-29T10:31:05.397Z,1012.26
2023-03-29T10:32:05.225Z,1012.21
2023-03-29T10:33:05.350Z,1012.22
2023-03-29T10:34:05.184Z,1012.19
2023-03-29T10:35:05.097Z,1012.20
2023-03-29T10:36:05.127Z,1012.21
2023-03-29T10:37:05.089Z,1012.19
2023-03-29T10:38:05.094Z,1012.16
2023-03-29T10:39:06.226Z,1012.13
2023-03-29T10:40:05.081Z,1012.11
2023-03-29T10:41:05.144Z,1012.09
2023-03-29T10:42:05.062Z,1012.14
2023-03-29T10:43:05.085Z,1012.12
2023-03-29T10:44:05.040Z,1012.10
2023-03-29T10:45:05.040Z,1012.05
2023-03-29T10:46:05.077Z,1012.02
2023-03-29T10:47:05.026Z,1012.02
2023-03-29T10:48:05.028Z,1012.01
2023-03-29T10:49:04.983Z,1011.99
2023-03-29T10:50:04.980Z,1011.98
2023-03-29T10:51:05.175Z,1012.03
2023-03-29T10:52:04.962Z,1012.06
2023-03-29T10:53:04.952Z,1011.99
2023-03-29T10:54:04.939Z,1012.05
2023-03-29T10:55:04.938Z,1011.99
2023-03-29T10:56:04.928Z,1012.06
2023-03-29T10:57:04.945Z,1012.03
2023-03-29T10:58:04.912Z,1012.00
2023-03-29T10:59:04.922Z,1011.96
2023-03-29T11:00:04.898Z,1011.96
2023-03-29T11:01:05.114Z,1011.95
2023-03-29T11:02:04.921Z,1011.94
2023-03-29T11:03:04.977Z,1012.00
2023-03-29T11:04:04.925Z,1011.97
2023-03-29T11:05:04.864Z,1011.97
2023-03-29T11:06:04.868Z,1011.95
2023-03-29T11:07:04.838Z,1011.94
2023-03-29T11:08:04.832Z,1011.97
2023-03-29T11:09:04.824Z,1011.94
2023-03-29T11:10:04.824Z,1011.89
2023-03-29T11:11:04.941Z,1011.95
2023-03-29T11:12:15.583Z,1011.95
2023-03-29T11:13:04.801Z,1011.94
2023-03-29T11:14:04.832Z,1011.96
2023-03-29T11:15:04.815Z,1011.99
2023-03-29T11:16:04.821Z,1011.97
2023-03-29T11:17:04.769Z,1011.97
2023-03-29T11:18:04.760Z,1011.91
2023-03-29T11:19:04.773Z,1011.85
2023-03-29T11:20:05.376Z,1011.79
2023-03-29T11:21:08.560Z,1011.83
2023-03-29T11:22:04.754Z,1011.79
2023-03-29T11:23:04.725Z,1011.81
2023-03-29T11:24:04.716Z,1011.82
2023-03-29T11:25:04.713Z,1011.78
2023-03-29T11:26:04.704Z,1011.83
2023-03-29T11:27:04.760Z,1011.81
2023-03-29T11:28:04.683Z,1011.78
2023-03-29T11:29:04.709Z,1011.76
2023-03-29T11:30:04.681Z,1011.73
2023-03-29T11:31:04.873Z,1011.74
2023-03-29T11:32:04.658Z,1011.76
2023-03-29T11:33:04.770Z,1011.75
2023-03-29T11:34:04.639Z,1011.77
2023-03-29T11:35:04.628Z,1011.76
2023-03-29T11:36:04.724Z,1011.74
2023-03-29T11:37:04.623Z,1011.72
2023-03-29T11:38:04.678Z,1011.64
2023-03-29T11:39:04.631Z,1011.60
2023-03-29T11:40:04.605Z,1011.63
2023-03-29T11:41:04.863Z,1011.63
2023-03-29T11:42:04.577Z,1011.60
2023-03-29T11:43:04.585Z,1011.65
2023-03-29T11:44:04.569Z,1011.65
2023-03-29T11:45:04.576Z,1011.58
2023-03-29T11:46:04.578Z,1011.57
2023-03-29T11:47:04.564Z,1011.58
2023-03-29T11:48:04.584Z,1011.55
2023-03-29T11:49:04.537Z,1011.58
2023-03-29T11:50:04.544Z,1011.58
2023-03-29T11:51:04.630Z,1011.52
2023-03-29T11:52:04.512Z,1011.53
2023-03-29T11:53:04.512Z,1011.52
2023-03-29T11:54:04.503Z,1011.48
2023-03-29T11:55:04.493Z,1011.56
2023-03-29T11:56:04.493Z,1011.53
2023-03-29T11:57:04.522Z,1011.50
2023-03-29T11:58:04.485Z,1011.54
2023-03-29T11:59:04.465Z,1011.53
2023-03-29T12:00:04.462Z,1011.53
2023-03-29T12:01:04.546Z,1011.52
2023-03-29T12:02:04.504Z,1011.57
2023-03-29T12:03:04.496Z,1011.56
2023-03-29T12:04:04.525Z,1011.53
2023-03-29T12:05:04.427Z,1011.52